Time;durP1;ratioP1;P1;durP2;ratioP2;P2;SDS_P1;SDS_P2;PMS_P1;PMS_P2;Temp;Humidity;BMP_temperature;BMP_pressure;BME280_temperature;BME280_humidity;BME280_pressure;Samples;Min_cycle;Max_cycle;Signal;HPM_P1;HPM_P2
2022/05/15 00:00:41;;;;;;;6.10;3.97;;;;;;;18.21;70.31;99088.81;5109596;28;20630;-81
2022/05/15 00:03:13;;;;;;;4.57;4.00;;;;;;;18.17;71.13;99087.50;5109113;28;20759;-84
2022/05/15 00:05:40;;;;;;;8.23;4.13;;;;;;;18.05;71.22;99086.19;5109900;28;20225;-81
2022/05/15 00:08:09;;;;;;;7.23;4.33;;;;;;;17.95;71.24;99088.94;5109788;28;20223;-84
2022/05/15 00:10:37;;;;;;;7.83;4.40;;;;;;;17.90;71.59;99082.63;5109703;28;20269;-82
2022/05/15 00:13:06;;;;;;;6.93;4.07;;;;;;;17.82;72.24;99093.72;5109665;28;20284;-81
2022/05/15 00:15:34;;;;;;;8.23;4.20;;;;;;;17.77;72.02;99098.53;5109473;28;20209;-84
2022/05/15 00:18:01;;;;;;;6.97;4.00;;;;;;;17.74;72.59;99097.06;5109699;28;20218;-84
2022/05/15 00:20:28;;;;;;;7.57;3.90;;;;;;;17.70;72.91;99092.38;5109582;28;20684;-81
2022/05/15 00:22:55;;;;;;;10.10;4.20;;;;;;;17.65;73.28;99096.22;5109608;28;20225;-84
2022/05/15 00:25:22;;;;;;;5.23;3.97;;;;;;;17.65;73.46;99087.66;5109432;28;20205;-84
2022/05/15 00:27:49;;;;;;;6.57;4.20;;;;;;;17.62;73.94;99098.31;5108933;28;20236;-84
2022/05/15 00:30:21;;;;;;;7.90;4.93;;;;;;;17.57;74.93;99095.38;5109665;28;20209;-81
2022/05/15 00:32:48;;;;;;;7.50;4.27;;;;;;;17.52;74.69;99097.63;5109217;28;20229;-84
2022/05/15 00:35:15;;;;;;;6.10;4.80;;;;;;;17.43;75.61;99089.84;5109163;28;20203;-81
2022/05/15 00:37:42;;;;;;;6.20;4.43;;;;;;;17.40;75.49;99094.50;5108879;28;20732;-81
2022/05/15 00:40:10;;;;;;;8.53;4.87;;;;;;;17.43;75.59;99091.63;5109220;28;20239;-84
2022/05/15 00:42:37;;;;;;;7.93;4.83;;;;;;;17.44;75.78;99093.22;5109134;28;20598;-82
2022/05/15 00:45:05;;;;;;;5.80;4.50;;;;;;;17.43;76.45;99092.44;5109200;28;20206;-81
2022/05/15 00:47:35;;;;;;;7.30;4.97;;;;;;;17.40;76.20;99095.31;5109109;28;20217;-80
2022/05/15 00:50:04;;;;;;;6.17;4.97;;;;;;;17.39;76.51;99093.72;5108996;28;20698;-84
2022/05/15 00:52:35;;;;;;;5.40;4.40;;;;;;;17.35;76.71;99092.38;5109267;28;20635;-84
2022/05/15 00:55:07;;;;;;;9.23;4.73;;;;;;;17.28;76.87;99101.72;5109117;28;20198;-84
2022/05/15 00:57:38;;;;;;;7.90;5.07;;;;;;;17.26;77.48;99103.66;5109038;28;20237;-84
2022/05/15 01:00:11;;;;;;;7.50;4.80;;;;;;;17.26;77.60;99093.31;5109144;28;20598;-81
2022/05/15 01:02:44;;;;;;;8.83;4.77;;;;;;;17.22;77.99;99094.59;5109053;28;20217;-84
2022/05/15 01:05:12;;;;;;;6.50;4.80;;;;;;;17.18;77.65;99101.00;5109405;28;20204;-84
2022/05/15 01:07:39;;;;;;;5.93;4.67;;;;;;;17.17;77.97;99097.63;5109013;28;20217;-81
2022/05/15 01:10:08;;;;;;;8.43;5.37;;;;;;;17.09;78.20;99104.50;5109032;28;20201;-84
2022/05/15 01:12:40;;;;;;;10.37;5.13;;;;;;;17.09;79.03;99107.09;5109579;28;20225;-84
2022/05/15 01:15:09;;;;;;;9.07;5.27;;;;;;;17.04;78.79;99115.28;5113299;28;20196;-84
2022/05/15 01:17:36;;;;;;;8.00;5.50;;;;;;;17.00;79.19;99116.56;5112991;28;20225;-83
2022/05/15 01:20:07;;;;;;;9.70;5.40;;;;;;;16.93;79.15;99111.19;5112889;28;20198;-81
2022/05/15 01:22:35;;;;;;;6.83;4.97;;;;;;;16.92;79.08;99112.13;5112938;27;20237;-81
2022/05/15 01:25:02;;;;;;;6.97;5.30;;;;;;;16.89;79.41;99117.59;5112535;28;20212;-84
2022/05/15 01:27:30;;;;;;;6.93;5.67;;;;;;;16.86;80.10;99117.91;5112757;28;20221;-80
2022/05/15 01:29:57;;;;;;;7.30;5.50;;;;;;;16.85;80.33;99121.47;5112815;28;20699;-84
2022/05/15 01:32:24;;;;;;;8.40;5.50;;;;;;;16.84;80.71;99121.59;5112518;28;20221;-81
2022/05/15 01:34:51;;;;;;;11.67;6.67;;;;;;;16.88;82.09;99128.91;5112513;28;20204;-80
2022/05/15 01:37:17;;;;;;;10.17;7.00;;;;;;;16.81;85.09;99125.28;5112795;28;20216;-83
2022/05/15 01:39:46;;;;;;;11.20;7.10;;;;;;;16.71;86.10;99124.53;5113011;28;20189;-84
2022/05/15 01:42:13;;;;;;;10.00;7.40;;;;;;;16.70;87.86;99125.53;5112371;28;20240;-82
2022/05/15 01:44:39;;;;;;;10.57;7.93;;;;;;;16.64;89.36;99111.44;5112304;28;20205;-83
2022/05/15 01:47:07;;;;;;;12.30;8.17;;;;;;;16.65;90.48;99125.16;5112435;28;20399;-81
2022/05/15 01:49:34;;;;;;;11.03;8.10;;;;;;;16.49;91.22;99121.47;5112138;28;20205;-81
2022/05/15 01:52:01;;;;;;;12.53;8.23;;;;;;;16.47;92.41;99128.53;5112337;28;20228;-81
2022/05/15 01:54:28;;;;;;;15.97;8.60;;;;;;;16.50;93.34;99130.81;5112108;28;20208;-80
2022/05/15 01:56:56;;;;;;;13.10;9.00;;;;;;;16.50;93.33;99132.59;5112437;28;20197;-85
2022/05/15 01:59:23;;;;;;;12.50;8.37;;;;;;;16.56;93.54;99136.38;5112091;28;20193;-83
2022/05/15 02:01:50;;;;;;;14.03;8.23;;;;;;;16.55;93.31;99134.72;5111949;28;20241;-81
2022/05/15 02:04:17;;;;;;;12.70;7.93;;;;;;;16.55;93.51;99137.31;5112151;28;20198;-80
2022/05/15 02:06:44;;;;;;;12.37;8.17;;;;;;;16.55;93.67;99135.56;5111791;28;20703;-80
2022/05/15 02:09:11;;;;;;;11.57;8.40;;;;;;;16.42;93.42;99140.25;5111881;28;20201;-80
2022/05/15 02:11:38;;;;;;;15.63;8.20;;;;;;;16.34;93.93;99143.56;5112081;28;20212;-84
2022/05/15 02:14:06;;;;;;;11.63;8.40;;;;;;;16.38;94.51;99149.25;5111752;28;20605;-81
2022/05/15 02:16:33;;;;;;;14.50;7.87;;;;;;;16.35;94.46;99144.38;5111968;28;20213;-80
2022/05/15 02:19:00;;;;;;;11.07;8.00;;;;;;;16.21;96.25;99143.13;5111557;28;20759;-80
2022/05/15 02:21:27;;;;;;;12.57;8.47;;;;;;;16.21;97.43;99143.94;5111573;28;20624;-83
2022/05/15 02:23:54;;;;;;;12.20;8.07;;;;;;;16.13;97.92;99140.44;5111031;28;20510;-80
2022/05/15 02:26:20;;;;;;;11.20;8.07;;;;;;;16.02;98.28;99146.63;5110920;28;20690;-84
2022/05/15 02:28:47;;;;;;;12.60;7.97;;;;;;;15.88;99.55;99142.75;5112000;28;20217;-80
2022/05/15 02:31:16;;;;;;;13.40;8.40;;;;;;;15.81;100.00;99144.28;5111411;28;20204;-81
2022/05/15 02:33:43;;;;;;;13.63;8.40;;;;;;;15.81;100.00;99146.84;5111856;28;20725;-85
2022/05/15 02:36:10;;;;;;;12.30;8.33;;;;;;;15.73;100.00;99149.34;5111426;28;20193;-80
2022/05/15 02:38:38;;;;;;;10.40;7.67;;;;;;;15.69;100.00;99142.84;5111397;28;20290;-80
2022/05/15 02:41:05;;;;;;;15.90;8.33;;;;;;;15.69;100.00;99148.00;5111470;28;20694;-84
2022/05/15 02:43:32;;;;;;;11.80;8.50;;;;;;;15.69;100.00;99145.44;5111121;28;20225;-80
2022/05/15 02:46:00;;;;;;;11.87;8.20;;;;;;;15.58;100.00;99142.03;5111137;27;20205;-80
2022/05/15 02:51:12;;;;;;;13.27;8.63;;;;;;;15.51;100.00;99161.59;5111330;28;20393;-80
2022/05/15 02:53:42;;;;;;;12.37;8.50;;;;;;;15.46;100.00;99152.66;5111040;28;20226;-84
2022/05/15 02:56:13;;;;;;;13.90;9.10;;;;;;;15.46;100.00;99156.03;5111159;28;20194;-84
2022/05/15 02:58:40;;;;;;;11.20;8.73;;;;;;;15.40;100.00;99143.72;5111329;28;20252;-85
2022/05/15 03:01:07;;;;;;;11.60;8.80;;;;;;;15.40;100.00;99144.53;5111023;28;20675;-81
2022/05/15 03:03:35;;;;;;;13.20;9.17;;;;;;;15.39;100.00;99148.06;5111272;28;20228;-81
2022/05/15 03:06:04;;;;;;;14.57;9.50;;;;;;;15.50;100.00;99149.66;5110780;28;20197;-84
2022/05/15 03:08:33;;;;;;;12.77;9.60;;;;;;;15.50;100.00;99149.66;5110756;28;20292;-80
2022/05/15 03:11:00;;;;;;;16.03;9.47;;;;;;;15.50;100.00;99148.84;5110710;28;20194;-81
2022/05/15 03:13:27;;;;;;;12.57;9.03;;;;;;;15.53;100.00;99154.53;5111138;28;20213;-86
2022/05/15 03:15:54;;;;;;;12.80;9.50;;;;;;;15.55;100.00;99162.94;5110813;28;20496;-81
2022/05/15 03:18:21;;;;;;;14.90;9.83;;;;;;;15.61;100.00;99164.94;5110978;28;20233;-82
2022/05/15 03:20:50;;;;;;;14.67;9.47;;;;;;;15.63;100.00;99175.13;5110700;28;20292;-84
2022/05/15 03:23:17;;;;;;;14.23;9.67;;;;;;;15.71;100.00;99171.88;5110675;27;20229;-81
2022/05/15 03:25:44;;;;;;;14.03;10.20;;;;;;;15.84;100.00;99174.94;5110593;28;20202;-79
2022/05/15 03:28:10;;;;;;;13.93;9.80;;;;;;;15.81;100.00;99172.63;5110584;28;20216;-85
2022/05/15 03:30:38;;;;;;;13.83;10.03;;;;;;;15.77;100.00;99179.03;5110704;28;20855;-79
2022/05/15 03:33:05;;;;;;;16.60;10.33;;;;;;;15.80;100.00;99173.59;5110491;28;20711;-79
2022/05/15 03:35:32;;;;;;;13.57;9.47;;;;;;;15.84;100.00;99175.75;5110201;28;20296;-80
2022/05/15 03:38:01;;;;;;;15.13;10.10;;;;;;;15.92;100.00;99180.19;5110130;28;20308;-80
2022/05/15 03:40:28;;;;;;;15.27;10.30;;;;;;;16.01;100.00;99175.94;5110149;28;20197;-79
2022/05/15 03:42:55;;;;;;;16.57;10.60;;;;;;;16.04;100.00;99171.31;5110132;28;20617;-80
2022/05/15 03:45:22;;;;;;;14.03;11.00;;;;;;;16.13;100.00;99176.56;5110161;28;20262;-80
2022/05/15 03:47:51;;;;;;;16.30;11.50;;;;;;;16.17;100.00;99175.31;5109938;28;20666;-85
2022/05/15 03:50:20;;;;;;;16.67;11.50;;;;;;;16.17;100.00;99178.69;5110233;28;20255;-85
2022/05/15 03:52:47;;;;;;;18.13;11.83;;;;;;;16.15;100.00;99179.81;5109917;28;20650;-80
2022/05/15 03:55:16;;;;;;;18.53;11.97;;;;;;;16.18;100.00;99179.53;5110445;28;20200;-80
2022/05/15 03:57:44;;;;;;;16.47;11.63;;;;;;;16.28;100.00;99180.28;5109907;28;20217;-80
2022/05/15 04:00:14;;;;;;;16.13;11.87;;;;;;;16.37;100.00;99189.72;5109764;28;20207;-84
2022/05/15 04:02:41;;;;;;;16.67;11.37;;;;;;;16.48;100.00;99189.50;5109520;28;20228;-85
2022/05/15 04:05:10;;;;;;;17.13;11.30;;;;;;;16.55;100.00;99186.34;5109873;28;20197;-85
2022/05/15 04:07:42;;;;;;;16.07;11.43;;;;;;;16.61;100.00;99198.66;5109640;28;20711;-84
2022/05/15 04:10:10;;;;;;;16.90;11.13;;;;;;;16.62;100.00;99208.06;5110229;28;20193;-84
2022/05/15 04:12:39;;;;;;;16.63;11.17;;;;;;;16.67;100.00;99208.44;5109484;28;20225;-85
2022/05/15 04:15:06;;;;;;;18.23;11.33;;;;;;;16.68;100.00;99217.78;5110023;28;20197;-80
2022/05/15 04:17:33;;;;;;;17.63;12.13;;;;;;;16.82;100.00;99219.88;5109651;28;20354;-85
2022/05/15 04:20:03;;;;;;;15.30;10.80;;;;;;;16.86;100.00;99226.38;5109631;28;20193;-80
2022/05/15 04:22:30;;;;;;;15.57;11.43;;;;;;;16.96;100.00;99237.44;5109481;28;20323;-80
2022/05/15 04:24:57;;;;;;;14.77;11.37;;;;;;;16.97;100.00;99244.22;5109697;28;20597;-85
2022/05/15 04:27:24;;;;;;;18.13;11.70;;;;;;;16.97;100.00;99251.97;5109459;28;20270;-84
2022/05/15 04:29:53;;;;;;;17.63;12.23;;;;;;;17.03;100.00;99260.09;5109389;28;20288;-85
2022/05/15 04:32:20;;;;;;;18.53;12.03;;;;;;;17.13;100.00;99258.25;5109454;28;20901;-85
2022/05/15 04:34:47;;;;;;;14.27;11.10;;;;;;;17.18;100.00;99259.41;5109599;28;20267;-80
2022/05/15 04:37:14;;;;;;;15.37;10.80;;;;;;;17.22;100.00;99262.53;5109173;28;20312;-85
2022/05/15 04:39:41;;;;;;;13.77;10.90;;;;;;;17.16;100.00;99258.78;5109320;28;20198;-85
2022/05/15 04:42:09;;;;;;;13.23;10.43;;;;;;;17.17;100.00;99262.97;5109181;28;20290;-80
2022/05/15 04:44:36;;;;;;;14.27;10.77;;;;;;;17.22;100.00;99257.38;5108947;28;20686;-84
2022/05/15 04:47:05;;;;;;;14.93;10.73;;;;;;;17.22;100.00;99262.53;5108696;28;20723;-84
2022/05/15 04:49:32;;;;;;;15.27;10.73;;;;;;;17.22;100.00;99262.53;5108935;28;20204;-80
2022/05/15 04:51:58;;;;;;;14.73;10.60;;;;;;;17.31;100.00;99266.00;5109194;28;20193;-80
2022/05/15 04:54:25;;;;;;;16.27;10.50;;;;;;;17.26;100.00;99274.19;5109048;28;20194;-85
2022/05/15 04:56:52;;;;;;;13.00;9.87;;;;;;;17.24;98.38;99276.09;5109125;28;20236;-85
2022/05/15 04:59:19;;;;;;;14.60;9.83;;;;;;;17.25;97.38;99271.75;5109143;28;20738;-80
2022/05/15 05:01:46;;;;;;;12.30;9.43;;;;;;;17.23;93.97;99274.50;5108903;28;20240;-80
2022/05/15 05:04:14;;;;;;;14.53;9.20;;;;;;;17.23;93.05;99278.84;5109396;28;20205;-81
2022/05/15 05:06:41;;;;;;;12.67;9.33;;;;;;;17.28;92.58;99289.53;5108942;28;20212;-85
2022/05/15 05:09:08;;;;;;;12.40;9.47;;;;;;;17.25;91.51;99282.91;5109075;28;20270;-80
2022/05/15 05:11:35;;;;;;;12.87;9.27;;;;;;;17.20;92.23;99285.13;5108944;28;20205;-84
2022/05/15 05:14:02;;;;;;;11.27;9.50;;;;;;;17.24;92.44;99278.69;5108777;28;20221;-81
2022/05/15 05:16:30;;;;;;;15.90;10.13;;;;;;;17.20;91.73;99279.97;5108913;28;20609;-80
2022/05/15 05:18:57;;;;;;;11.27;9.43;;;;;;;17.14;92.23;99283.13;5108858;28;20545;-80
2022/05/15 05:21:25;;;;;;;11.17;9.90;;;;;;;17.12;92.24;99287.63;5108810;28;20258;-83
2022/05/15 05:23:52;;;;;;;14.33;9.70;;;;;;;17.04;92.11;99279.81;5108921;28;20221;-81
2022/05/15 05:26:19;;;;;;;12.80;9.80;;;;;;;17.03;92.24;99288.53;5108830;28;20710;-80
2022/05/15 05:28:46;;;;;;;16.47;10.30;;;;;;;16.98;91.93;99292.34;5109178;28;20240;-80
2022/05/15 05:31:13;;;;;;;15.60;9.47;;;;;;;17.00;91.83;99283.66;5109206;28;20757;-84
2022/05/15 05:33:40;;;;;;;11.50;9.60;;;;;;;17.01;91.62;99290.44;5109185;28;20235;-80
2022/05/15 05:36:08;;;;;;;14.43;9.40;;;;;;;17.03;91.64;99296.28;5108787;28;20185;-80
2022/05/15 05:38:36;;;;;;;12.50;9.70;;;;;;;17.07;91.76;99290.66;5109146;28;20240;-83
2022/05/15 05:41:03;;;;;;;17.10;9.83;;;;;;;17.22;91.56;99290.97;5108663;28;20198;-80
2022/05/15 05:43:30;;;;;;;12.53;9.47;;;;;;;17.27;91.09;99291.31;5108721;28;20237;-85
2022/05/15 05:45:58;;;;;;;11.43;9.50;;;;;;;17.36;90.31;99300.75;5108625;28;20584;-85
2022/05/15 05:48:25;;;;;;;12.60;9.83;;;;;;;17.41;89.63;99302.91;5108803;28;20623;-81
2022/05/15 05:50:52;;;;;;;12.60;9.73;;;;;;;17.51;89.61;99297.63;5108612;28;20213;-86
2022/05/15 05:53:19;;;;;;;12.73;9.10;;;;;;;17.65;88.62;99299.69;5108504;28;20757;-85
2022/05/15 05:55:47;;;;;;;11.13;8.87;;;;;;;17.78;87.21;99300.13;5108374;28;20194;-85
2022/05/15 05:58:14;;;;;;;11.33;9.60;;;;;;;17.96;88.70;99291.50;5108940;28;20507;-86
2022/05/15 06:00:41;;;;;;;11.53;8.67;;;;;;;18.07;84.72;99294.66;5110921;28;20216;-80
2022/05/15 06:05:52;;;;;;;13.00;8.77;;;;;;;18.14;85.25;99294.84;5112081;28;20311;-81
2022/05/15 06:08:20;;;;;;;13.17;9.00;;;;;;;18.10;83.71;99298.72;5112329;28;20673;-80
2022/05/15 06:10:49;;;;;;;9.77;8.77;;;;;;;18.11;84.31;99300.31;5111969;28;20212;-79
2022/05/15 06:13:15;;;;;;;12.50;9.00;;;;;;;18.09;84.06;99302.25;5112200;28;20226;-79
2022/05/15 06:15:42;;;;;;;13.87;9.10;;;;;;;18.21;85.36;99301.03;5112006;28;20214;-81
2022/05/15 06:18:09;;;;;;;11.20;9.07;;;;;;;18.26;83.82;99288.41;5111967;28;20855;-78
2022/05/15 06:20:36;;;;;;;12.53;8.10;;;;;;;18.20;82.63;99294.22;5111727;28;20271;-78
2022/05/15 06:23:03;;;;;;;11.93;8.03;;;;;;;18.24;83.36;99298.13;5111724;28;20243;-79
2022/05/15 06:25:30;;;;;;;10.93;8.67;;;;;;;18.46;83.38;99301.13;5111580;27;20194;-81
2022/05/15 06:27:58;;;;;;;12.57;8.50;;;;;;;18.66;83.07;99299.09;5111455;28;20592;-79
2022/05/15 06:30:25;;;;;;;11.10;8.53;;;;;;;18.96;82.43;99300.31;5111733;28;20205;-81
2022/05/15 06:32:52;;;;;;;11.03;8.37;;;;;;;19.18;80.29;99302.31;5111443;28;20226;-79
2022/05/15 06:35:19;;;;;;;9.40;8.27;;;;;;;19.33;79.32;99306.84;5111346;28;20268;-81
2022/05/15 06:37:46;;;;;;;10.13;7.57;;;;;;;19.56;78.41;99307.81;5111332;28;20228;-79
2022/05/15 06:40:15;;;;;;;22.83;8.67;;;;;;;19.76;78.20;99312.69;5111527;28;20204;-79
2022/05/15 06:42:42;;;;;;;11.70;8.30;;;;;;;20.07;76.86;99313.63;5111764;28;20245;-81
2022/05/15 06:45:12;;;;;;;12.30;8.30;;;;;;;20.24;74.58;99321.34;5111432;28;20289;-82
2022/05/15 06:47:40;;;;;;;9.27;7.97;;;;;;;20.35;73.85;99314.00;5111687;28;20745;-81
2022/05/15 06:50:08;;;;;;;11.43;7.93;;;;;;;20.48;73.80;99323.06;5111231;28;20199;-80
2022/05/15 06:52:37;;;;;;;9.57;7.50;;;;;;;20.80;74.10;99322.13;5111096;28;20694;-81
2022/05/15 06:55:05;;;;;;;8.77;7.67;;;;;;;21.15;72.47;99330.34;5111277;28;21018;-81
2022/05/15 06:57:32;;;;;;;9.03;7.63;;;;;;;21.56;69.92;99341.28;5110808;28;20765;-79
2022/05/15 07:00:01;;;;;;;9.80;7.77;;;;;;;21.80;70.57;99335.06;5111175;28;20203;-80
2022/05/15 07:02:30;;;;;;;10.23;7.57;;;;;;;21.95;68.12;99344.69;5110908;28;20242;-79
2022/05/15 07:04:57;;;;;;;8.37;7.50;;;;;;;22.00;69.11;99344.97;5111077;28;20617;-80
2022/05/15 07:07:24;;;;;;;8.53;6.87;;;;;;;22.23;67.59;99361.34;5110494;28;20216;-81
2022/05/15 07:09:52;;;;;;;9.30;7.33;;;;;;;22.21;67.13;99363.31;5110574;28;20199;-81
2022/05/15 07:12:19;;;;;;;8.63;6.70;;;;;;;22.59;67.09;99360.59;5110256;28;20220;-81
2022/05/15 07:14:46;;;;;;;8.50;7.10;;;;;;;22.63;65.17;99374.91;5110838;28;20209;-80
2022/05/15 07:17:13;;;;;;;8.97;7.50;;;;;;;22.29;65.89;99371.03;5110985;28;20232;-80
2022/05/15 07:19:41;;;;;;;9.03;7.37;;;;;;;22.12;65.30;99374.78;5110647;28;20690;-81
2022/05/15 07:22:09;;;;;;;9.40;7.43;;;;;;;21.79;67.92;99369.88;5110521;28;20242;-80
2022/05/15 07:24:38;;;;;;;8.73;7.37;;;;;;;21.53;67.58;99379.88;5110496;28;20638;-80
2022/05/15 07:27:06;;;;;;;9.47;7.63;;;;;;;21.69;69.03;99379.72;5110782;28;20254;-79
2022/05/15 07:29:36;;;;;;;10.07;7.53;;;;;;;21.84;67.67;99369.34;5110426;28;20398;-80
2022/05/15 07:32:03;;;;;;;11.10;7.90;;;;;;;22.22;68.96;99370.13;5110269;28;20204;-80
2022/05/15 07:34:30;;;;;;;11.47;7.47;;;;;;;22.57;67.38;99373.00;5110537;28;20214;-80
2022/05/15 07:36:59;;;;;;;9.23;7.30;;;;;;;22.81;65.54;99380.53;5110244;28;20219;-80
2022/05/15 07:39:25;;;;;;;12.33;7.40;;;;;;;23.19;62.92;99388.19;5110353;28;20267;-80
2022/05/15 07:41:52;;;;;;;9.63;7.10;;;;;;;23.62;64.04;99390.00;5110129;28;20200;-80
2022/05/15 07:44:19;;;;;;;8.87;6.63;;;;;;;23.42;62.08;99392.44;5110529;28;20197;-81
2022/05/15 07:46:46;;;;;;;7.90;6.80;;;;;;;23.65;60.32;99398.28;5109864;28;20285;-81
2022/05/15 07:49:13;;;;;;;10.40;7.20;;;;;;;23.89;60.42;99397.09;5110192;28;20202;-80
2022/05/15 07:51:44;;;;;;;10.23;6.80;;;;;;;23.67;58.76;99390.25;5110296;28;20754;-81
2022/05/15 07:54:13;;;;;;;7.73;6.70;;;;;;;23.42;60.16;99389.84;5110113;28;20200;-80
2022/05/15 07:56:40;;;;;;;9.03;6.43;;;;;;;23.78;63.83;99396.78;5110100;28;20717;-81
2022/05/15 07:59:07;;;;;;;9.20;6.80;;;;;;;23.70;58.96;99395.91;5109878;28;20210;-81
2022/05/15 08:01:34;;;;;;;11.23;6.80;;;;;;;23.66;62.19;99397.28;5109615;28;20670;-81
2022/05/15 08:04:01;;;;;;;7.72;6.90;;;;;;;23.67;59.31;99401.47;5109477;28;20753;-80
2022/05/15 08:09:13;;;;;;;7.70;6.30;;;;;;;23.73;59.53;99410.41;5109820;28;20254;-80
2022/05/15 08:11:40;;;;;;;8.05;6.90;;;;;;;23.86;59.81;99400.06;5109785;28;20201;-79
2022/05/15 08:14:09;;;;;;;7.55;6.80;;;;;;;23.66;60.22;99409.53;5109807;28;20471;-81
2022/05/15 08:16:38;;;;;;;11.33;6.93;;;;;;;23.63;62.48;99410.69;5109759;28;20299;-81
2022/05/15 08:24:42;;;;;;;10.90;6.82;;;;;;;23.90;61.80;99426.63;5051317;28;20207;-80
2022/05/15 08:27:10;;;;;;;8.63;6.37;;;;;;;23.89;57.63;99438.06;5109977;28;20229;-82
2022/05/15 08:29:37;;;;;;;7.75;6.55;;;;;;;24.04;58.44;99430.94;5109335;28;20243;-80
2022/05/15 08:32:05;;;;;;;7.40;6.63;;;;;;;23.79;58.37;99429.72;5109192;28;20693;-81
2022/05/15 08:34:32;;;;;;;11.70;7.00;;;;;;;23.94;61.38;99435.72;5109431;28;20208;-82
2022/05/15 08:37:00;;;;;;;9.40;6.47;;;;;;;24.00;59.05;99437.56;5109513;28;20626;-80
2022/05/15 08:39:29;;;;;;;9.52;6.72;;;;;;;24.30;58.23;99439.97;5109376;28;20306;-80
2022/05/15 08:42:11;;;;;;;9.77;6.63;;;;;;;24.53;58.41;99437.13;5109336;28;20266;-80
2022/05/15 08:44:44;;;;;;;7.32;6.55;;;;;;;24.08;59.67;99442.63;5109284;28;20204;-82
2022/05/15 08:47:19;;;;;;;10.00;6.57;;;;;;;24.72;58.29;99451.28;5109751;28;20217;-80
2022/05/15 08:49:50;;;;;;;10.18;6.45;;;;;;;24.99;56.31;99437.34;5109378;28;20283;-79
2022/05/15 08:52:18;;;;;;;8.43;6.72;;;;;;;24.58;56.88;99440.78;5109083;28;20248;-81
2022/05/15 08:54:53;;;;;;;8.93;6.97;;;;;;;24.62;56.13;99449.84;5109068;28;20201;-80
2022/05/15 08:57:34;;;;;;;9.85;6.53;;;;;;;25.12;55.96;99446.25;5109134;28;20217;-80
2022/05/15 09:00:02;;;;;;;21.25;7.47;;;;;;;24.94;55.32;99455.44;5109263;28;20201;-80
2022/05/15 09:02:29;;;;;;;8.70;6.80;;;;;;;25.00;56.75;99449.41;5109117;28;20224;-80
2022/05/15 09:04:56;;;;;;;9.73;7.18;;;;;;;25.09;56.29;99452.66;5109320;28;20614;-80
2022/05/15 09:07:38;;;;;;;9.35;6.85;;;;;;;25.28;57.81;99461.63;5109028;28;20707;-81
2022/05/15 09:10:19;;;;;;;9.35;6.90;;;;;;;25.22;56.58;99457.16;5109172;28;20421;-80
2022/05/15 09:12:57;;;;;;;8.45;6.50;;;;;;;25.62;56.90;99462.50;5109116;28;20706;-81
2022/05/15 09:15:27;;;;;;;7.53;6.22;;;;;;;25.69;53.35;99463.31;5108809;28;20293;-81
2022/05/15 09:18:00;;;;;;;8.77;6.45;;;;;;;25.41;56.75;99466.09;5108702;28;20252;-80
2022/05/15 09:20:44;;;;;;;8.32;6.70;;;;;;;25.60;57.58;99459.25;5109196;28;20197;-81
2022/05/15 09:23:23;;;;;;;9.80;6.65;;;;;;;25.81;56.61;99455.69;5108597;28;20252;-80
2022/05/15 09:25:56;;;;;;;7.43;6.18;;;;;;;25.69;56.88;99447.63;5108815;28;20660;-80
2022/05/15 09:28:27;;;;;;;9.95;6.38;;;;;;;25.61;56.27;99460.88;5108881;28;20248;-81
2022/05/15 09:30:55;;;;;;;8.90;6.68;;;;;;;25.27;57.36;99462.63;5109256;28;20213;-79
2022/05/15 09:33:34;;;;;;;12.40;7.72;;;;;;;25.55;56.99;99452.00;5109153;28;20603;-80
2022/05/15 09:36:20;;;;;;;7.90;7.05;;;;;;;25.75;54.96;99457.28;5112935;28;20368;-80
2022/05/15 09:38:49;;;;;;;10.40;7.70;;;;;;;25.64;57.18;99450.81;5112860;28;20311;-82
2022/05/15 09:44:06;;;;;;;8.18;7.30;;;;;;;26.12;52.84;99460.31;5112294;28;20240;-82
2022/05/15 09:46:33;;;;;;;9.27;7.47;;;;;;;25.77;56.84;99462.31;5112337;28;20201;-80
2022/05/15 09:49:05;;;;;;;10.25;7.72;;;;;;;26.06;52.82;99455.91;5112462;28;20224;-80
2022/05/15 09:51:43;;;;;;;16.88;7.50;;;;;;;25.89;54.67;99458.94;5112476;28;20193;-80
2022/05/15 09:54:11;;;;;;;12.40;7.75;;;;;;;25.65;57.41;99464.72;5112402;28;20197;-81
2022/05/15 09:56:38;;;;;;;11.65;7.00;;;;;;;25.68;57.20;99462.50;5112372;28;20212;-79
2022/05/15 09:59:12;;;;;;;8.38;7.32;;;;;;;25.78;57.14;99467.38;5112100;28;20217;-80
2022/05/15 10:01:42;;;;;;;9.48;6.82;;;;;;;25.85;55.52;99468.19;5112115;28;20212;-80
2022/05/15 10:04:21;;;;;;;11.40;7.78;;;;;;;25.74;54.55;99466.13;5112296;28;20707;-79
2022/05/15 10:06:53;;;;;;;12.23;8.27;;;;;;;25.87;55.60;99465.38;5112113;28;20194;-82
2022/05/15 10:09:30;;;;;;;15.57;7.30;;;;;;;26.02;56.82;99463.38;5111918;28;20197;-79
2022/05/15 10:12:02;;;;;;;8.55;7.65;;;;;;;26.06;52.92;99469.00;5112118;28;20225;-79
2022/05/15 10:14:38;;;;;;;10.68;6.88;;;;;;;25.95;55.95;99466.00;5111805;28;20194;-81
2022/05/15 10:17:07;;;;;;;8.00;6.57;;;;;;;26.07;56.74;99458.31;5111957;28;20217;-80
2022/05/15 10:19:41;;;;;;;8.40;6.55;;;;;;;25.92;56.23;99461.16;5111635;28;20201;-79
2022/05/15 10:22:23;;;;;;;7.55;6.38;;;;;;;26.10;54.81;99472.84;5112055;28;20612;-79
2022/05/15 10:24:52;;;;;;;10.70;6.72;;;;;;;25.99;56.26;99468.22;5111849;28;20237;-81
2022/05/15 10:27:23;;;;;;;9.23;6.45;;;;;;;25.57;57.17;99464.91;5111859;28;20722;-81
2022/05/15 10:29:57;;;;;;;9.07;6.22;;;;;;;25.05;58.38;99467.16;5111563;28;20676;-79
2022/05/15 10:32:29;;;;;;;7.97;6.60;;;;;;;25.50;58.36;99470.94;5111708;28;20273;-82
2022/05/15 10:34:58;;;;;;;8.50;6.65;;;;;;;25.75;58.20;99473.81;5111507;28;20597;-79
2022/05/15 10:37:58;;;;;;;9.85;6.22;;;;;;;25.94;56.30;99474.84;5111606;28;20255;-81
2022/05/15 10:40:34;;;;;;;10.43;6.43;;;;;;;25.66;55.94;99468.97;5112009;28;20208;-79
2022/05/15 10:43:19;;;;;;;7.22;6.53;;;;;;;25.30;56.59;99472.69;5110904;28;20231;-82
2022/05/15 10:45:54;;;;;;;10.70;6.53;;;;;;;25.17;56.83;99475.28;5110961;28;20209;-82
2022/05/15 10:48:41;;;;;;;9.27;6.30;;;;;;;25.12;59.68;99472.41;5111618;28;20224;-79
2022/05/15 10:51:16;;;;;;;8.70;6.05;;;;;;;25.15;58.61;99479.91;5111045;28;20603;-79
2022/05/15 10:57:26;;;;;;;9.20;6.47;;;;;;;25.02;57.96;99478.00;5109461;28;20609;-79
2022/05/15 11:00:02;;;;;;;9.23;6.30;;;;;;;24.72;60.67;99477.44;5111340;28;20201;-79
2022/05/15 11:03:04;;;;;;;8.70;7.15;;;;;;;24.47;61.07;99474.50;5103613;28;20244;-82
2022/05/15 11:05:33;;;;;;;6.97;6.25;;;;;;;24.33;59.92;99476.19;5090886;28;20209;-82
2022/05/15 11:08:19;;;;;;;11.15;6.88;;;;;;;24.16;59.67;99468.63;5095214;28;20398;-83
2022/05/15 11:10:50;;;;;;;7.20;6.45;;;;;;;24.03;60.94;99463.31;5091333;28;20214;-79
2022/05/15 11:13:22;;;;;;;10.10;6.60;;;;;;;24.13;61.88;99468.19;5091189;28;20234;-79
2022/05/15 11:15:58;;;;;;;9.00;6.65;;;;;;;23.88;61.63;99473.81;5089589;28;20201;-82
2022/05/15 11:18:40;;;;;;;9.57;6.50;;;;;;;23.85;60.47;99470.75;5097407;28;20220;-79
2022/05/15 11:21:12;;;;;;;9.10;6.80;;;;;;;23.90;61.65;99468.41;5105945;28;20255;-82
2022/05/15 11:23:44;;;;;;;7.82;6.82;;;;;;;24.04;60.82;99464.91;5109192;28;20240;-82
2022/05/15 11:26:17;;;;;;;11.18;7.47;;;;;;;24.11;61.13;99470.16;5101939;28;20213;-79
2022/05/15 11:28:47;;;;;;;8.85;7.93;;;;;;;24.15;60.66;99461.78;5095155;28;20230;-79
2022/05/15 11:31:18;;;;;;;9.20;7.57;;;;;;;24.17;61.28;99465.03;5102988;28;20696;-79
2022/05/15 11:33:53;;;;;;;10.43;8.00;;;;;;;24.26;60.43;99462.25;5100333;28;20252;-81
2022/05/15 11:36:38;;;;;;;8.90;8.00;;;;;;;24.47;60.53;99456.19;5091615;28;20699;-79
2022/05/15 11:39:22;;;;;;;10.10;8.07;;;;;;;24.54;60.21;99450.00;5092220;28;20222;-79
2022/05/15 11:42:14;;;;;;;9.85;8.18;;;;;;;24.66;61.41;99457.31;5102034;28;20233;-80
2022/05/15 11:44:43;;;;;;;8.85;7.15;;;;;;;24.54;59.21;99450.00;5111058;28;20229;-80
2022/05/15 11:47:24;;;;;;;13.43;7.88;;;;;;;24.31;59.74;99454.66;5111215;28;20723;-81
2022/05/15 11:50:06;;;;;;;9.57;7.80;;;;;;;24.38;60.76;99451.09;5110775;28;20193;-80
2022/05/15 11:52:39;;;;;;;9.32;7.50;;;;;;;24.38;59.51;99450.28;5111096;28;20260;-80
2022/05/15 11:55:54;;;;;;;10.50;8.00;;;;;;;24.15;59.60;99451.34;5110757;28;20201;-80
2022/05/15 11:58:41;;;;;;;9.25;8.23;;;;;;;24.37;61.85;99443.44;5047918;28;20227;-82